Impacts TAF Board
For situational awareness. Not to be used for flight planning purposes.
IDs:

KGNV - Gainesville Rgnl, FL, US

Issued at 2209 UTC 21 May 2022
Updated at 2259 UTC 21 May 2022
Potential Impact None Slight Moderate High
Time2253Z 21/23Z 22/00Z 22/01Z 22/02Z 22/03Z 22/04Z 22/05Z 22/06Z 22/07Z 22/08Z 22/09Z 22/10Z 22/11Z>>
Type OBS PRVL PRVL PRVL PRVL PRVL PRVL PRVL PRVL PRVL PRVL PRVL PRVL PRVL
VIS 10 >6 >6 >6 >6 >6 >6 >6 >6 >6 >6 >6 >6 >6
CIG 28 35 35 50 50 50 50 50 50 50 50 150 150 150
Cover OVC BKN BKN OVC OVC OVC OVC OVC OVC OVC OVC BKN BKN BKN
FltCat MVFR VFR VFR VFR VFR VFR VFR VFR VFR VFR VFR VFR VFR VFR
WX -- VCTS VCTS VCSH VCSH VCSH VCSH VCSH VCSH VCSH VCSH -- -- --
WDir 20 240 240 80 80 80 80 80 80 80 80 VRB VRB VRB
WSpd 6 8 8 7 7 7 7 7 7 7 7 0 0 0
WGst -- -- -- -- -- -- -- -- -- -- -- -- -- --
WSHgt -- -- -- -- -- -- -- -- -- -- -- -- -- --
WSDir -- -- -- -- -- -- -- -- -- -- -- -- -- --
WSSpd -- -- -- -- -- -- -- -- -- -- -- -- -- --
R07/25
XWnd 4 -0 -0 -2 -2 -2 -2 -2 -2 -2 -2 VRB VRB VRB
R11/29
XWnd 6 -5 -5 3 3 3 3 3 3 3 3 VRB VRB VRB
Raw TAF
KGNV 212209Z 2122/2218 24008KT P6SM FEW025 SCT035 BKN090
  FM212300 24008KT P6SM VCTS SCT025 BKN035CB BKN090
  FM220100 08007KT P6SM VCSH SCT025 BKN050 OVC120
  FM220900 00000KT P6SM SCT090 BKN150
  FM221400 23005KT P6SM SCT020 BKN200


Raw METAR
KGNV 212253Z 02006KT 10SM FEW008 BKN028 OVC036 23/22 A3022 RMK AO2 SLP231 T02330217
KGNV 212249Z 02008KT 10SM FEW008 BKN028 OVC036 23/22 A3022 RMK AO2
KGNV 212239Z 01007KT 10SM BKN028 BKN032 23/22 A3022 RMK AO2 LTG DSNT E T02330222
KGNV 212153Z 00000KT 10SM CLR 24/22 A3015 RMK AO2 LTG DSNT NW-E RAE2055B19E42 TSB2055E10 SLP208 P0000 T02440222
KGNV 212134Z 03004KT 10SM -RA FEW024 24/22 A3015 RMK AO2 LTG DSNT ALQDS RAE2055B19 TSB2055E10 PRESFR P0000 T02390217
KGNV 212116Z 33006KT 10SM VCTS FEW024 SCT045 SCT085 23/22 A3018 RMK AO2 LTG DSNT ALQDS RAE2055 TSB2055E10 P0000 T02330217
KGNV 212101Z 00000KT 10SM TS FEW036 SCT048 BKN080 24/21 A3018 RMK AO2 LTG DSNT ALQDS RAE2055 TSB2055 P0000 T02390206
KGNV 212053Z 00000KT 10SM VCTS -RA SCT036 SCT055 BKN080 23/21 A3018 RMK AO2 PK WND 13031/2021 WSHFT 2016 LTG DSNT ALQDS RAB28 TSB10E49 SLP216 P0002 60002 T02330211 55003
KGNV 212036Z 19009G24KT 8SM -TSRA SCT034 BKN042 BKN050 24/20 A3016 RMK AO2 PK WND 13031/2021 WSHFT 2016 LTG DSNT ALQDS RAB28 TSB10 P0000 T02440200
KGNV 212016Z 18010KT 10SM TS FEW055 31/22 A3015 RMK AO2 LTG DSNT ALQDS TSB10 T03060217
KGNV 211953Z 22007KT 10SM VCTS CLR 32/22 A3014 RMK AO2 LTG DSNT ALQDS SLP204 T03170217

METAR Board
Radar Display
Forecast Discussion
For situational awareness. Not to be used for flight planning purposes.